Terminal Aerodrome Forecast
Issued by NWS

Home | Current Version | Previous Version | Text Only | Print | Product List | Glossary On
Versions: 1 2 3 4 5 6 7 8 9 10 11 12
227
FTUS44 KJAN 171737
TAFGTR
TAF
KGTR 171737Z 1718/1818 12006KT P6SM OVC005
     FM180100 11003KT 3SM BR OVC004
     FM180600 10003KT 2SM BR OVC003
     FM181500 17003KT P6SM OVC007=

USA.gov is the U.S. government's official web portal to all federal, state and local government web resources and services.